Time;durP1;ratioP1;P1;durP2;ratioP2;P2;SDS_P1;SDS_P2;PMS_P1;PMS_P2;Temp;Humidity;BMP_temperature;BMP_pressure;BME280_temperature;BME280_humidity;BME280_pressure;Samples;Min_cycle;Max_cycle;Signal;HPM_P1;HPM_P2
2022/07/01 00:00:37;;;;;;;3.40;0.70;;;;;;;;;;5133572;27;20451;-68
2022/07/01 00:03:04;;;;;;;3.07;0.70;;;;;;;;;;5132670;27;20482;-68
2022/07/01 00:05:32;;;;;;;3.10;0.70;;;;;;;;;;5133664;27;20469;-67
2022/07/01 00:07:59;;;;;;;3.00;0.80;;;;;;;;;;5132419;27;20811;-67
2022/07/01 00:10:26;;;;;;;3.20;0.90;;;;;;;;;;5133007;27;20907;-68
2022/07/01 00:12:54;;;;;;;4.03;0.90;;;;;;;;;;5145268;27;20451;-70
2022/07/01 00:15:22;;;;;;;3.83;0.70;;;;;;;;;;5133952;27;20465;-66
2022/07/01 00:17:50;;;;;;;3.33;0.83;;;;;;;;;;5133744;27;20529;-67
2022/07/01 00:20:18;;;;;;;2.63;0.60;;;;;;;;;;5133276;27;20455;-67
2022/07/01 00:22:45;;;;;;;2.60;0.50;;;;;;;;;;5133814;27;20797;-67
2022/07/01 00:25:12;;;;;;;3.60;1.00;;;;;;;;;;5133008;27;20449;-67
2022/07/01 00:27:39;;;;;;;3.23;0.63;;;;;;;;;;5133665;27;20622;-67
2022/07/01 00:30:09;;;;;;;2.73;0.60;;;;;;;;;;5132870;27;20437;-68
2022/07/01 00:32:36;;;;;;;2.70;0.60;;;;;;;;;;5133012;27;20477;-67
2022/07/01 00:35:03;;;;;;;3.67;0.70;;;;;;;;;;5132674;27;20555;-67
2022/07/01 00:37:31;;;;;;;3.10;0.90;;;;;;;;;;5131110;27;20480;-66
2022/07/01 00:39:58;;;;;;;5.63;0.90;;;;;;;;;;5132417;27;20525;-67
2022/07/01 00:42:25;;;;;;;3.00;0.93;;;;;;;;;;5132573;27;20931;-67
2022/07/01 00:44:52;;;;;;;2.80;0.80;;;;;;;;;;5133476;27;20451;-67
2022/07/01 00:47:21;;;;;;;2.60;0.70;;;;;;;;;;5133116;27;20450;-67
2022/07/01 00:49:48;;;;;;;4.37;0.80;;;;;;;;;;5132721;27;20938;-66
2022/07/01 00:52:15;;;;;;;3.40;0.70;;;;;;;;;;5131926;27;20442;-68
2022/07/01 00:54:43;;;;;;;2.50;0.60;;;;;;;;;;5132202;27;20943;-67
2022/07/01 00:57:11;;;;;;;2.60;0.60;;;;;;;;;;5132096;27;20513;-67
2022/07/01 00:59:39;;;;;;;2.60;0.57;;;;;;;;;;5132396;27;20500;-67
2022/07/01 01:02:06;;;;;;;4.10;0.50;;;;;;;;;;5131396;27;20540;-66
2022/07/01 01:04:35;;;;;;;3.00;0.60;;;;;;;;;;5132475;27;20445;-67
2022/07/01 01:07:02;;;;;;;3.00;0.60;;;;;;;;;;5128604;27;20458;-66
2022/07/01 01:09:30;;;;;;;3.37;0.60;;;;;;;;;;5132536;27;20443;-67
2022/07/01 01:11:58;;;;;;;2.80;0.60;;;;;;;;;;5130991;27;20455;-67
2022/07/01 01:14:25;;;;;;;2.50;0.50;;;;;;;;;;5132597;27;20440;-67
2022/07/01 01:16:52;;;;;;;2.80;0.70;;;;;;;;;;5132899;27;20449;-67
2022/07/01 01:19:19;;;;;;;3.83;0.67;;;;;;;;;;5132723;27;20483;-68
2022/07/01 01:21:48;;;;;;;2.50;0.50;;;;;;;;;;5136015;27;20452;-66
2022/07/01 01:24:15;;;;;;;2.50;0.50;;;;;;;;;;5131669;27;20959;-66
2022/07/01 01:26:42;;;;;;;2.97;0.77;;;;;;;;;;5132115;27;20447;-66
2022/07/01 01:29:09;;;;;;;4.07;0.70;;;;;;;;;;5131918;27;20452;-66
2022/07/01 01:31:37;;;;;;;2.67;0.67;;;;;;;;;;5132009;27;20443;-67
2022/07/01 01:34:04;;;;;;;2.83;0.67;;;;;;;;;;5131295;27;20469;-66
2022/07/01 01:36:31;;;;;;;2.70;0.67;;;;;;;;;;5132092;27;20933;-67
2022/07/01 01:39:03;;;;;;;5.73;0.60;;;;;;;;;;5131390;27;20489;-66
2022/07/01 01:41:30;;;;;;;2.90;0.70;;;;;;;;;;5131659;27;20441;-67
2022/07/01 01:43:57;;;;;;;3.00;0.50;;;;;;;;;;5118175;27;20456;-66
2022/07/01 01:46:24;;;;;;;3.20;0.67;;;;;;;;;;5132045;27;20803;-67
2022/07/01 01:48:52;;;;;;;3.57;0.80;;;;;;;;;;5132482;27;20455;-66
2022/07/01 01:51:20;;;;;;;3.43;0.70;;;;;;;;;;5131762;27;20498;-67
2022/07/01 01:53:47;;;;;;;3.13;0.60;;;;;;;;;;5132278;27;20865;-66
2022/07/01 01:56:15;;;;;;;4.03;0.70;;;;;;;;;;5131131;27;20457;-66
2022/07/01 01:58:43;;;;;;;3.40;0.60;;;;;;;;;;5131827;27;21046;-66
2022/07/01 02:01:11;;;;;;;3.50;0.60;;;;;;;;;;5130998;27;20451;-66
2022/07/01 02:03:38;;;;;;;3.70;0.70;;;;;;;;;;5131504;27;20822;-66
2022/07/01 02:06:05;;;;;;;3.20;0.60;;;;;;;;;;5130557;27;20446;-66
2022/07/01 02:08:32;;;;;;;3.10;0.60;;;;;;;;;;5132103;28;20458;-66
2022/07/01 02:11:00;;;;;;;3.20;0.67;;;;;;;;;;5131067;27;20439;-66
2022/07/01 02:13:28;;;;;;;3.20;0.60;;;;;;;;;;5142769;27;20922;-66
2022/07/01 02:15:56;;;;;;;3.10;0.60;;;;;;;;;;5130978;28;20449;-66
2022/07/01 02:18:23;;;;;;;3.63;0.67;;;;;;;;;;5131654;28;20446;-68
2022/07/01 02:20:50;;;;;;;3.70;0.70;;;;;;;;;;5131593;28;20453;-66
2022/07/01 02:23:17;;;;;;;3.40;0.60;;;;;;;;;;5131052;28;20447;-66
2022/07/01 02:25:46;;;;;;;3.17;0.50;;;;;;;;;;5131550;28;20444;-67
2022/07/01 02:28:13;;;;;;;3.33;0.67;;;;;;;;;;5131176;28;20700;-66
2022/07/01 02:30:42;;;;;;;3.50;0.70;;;;;;;;;;5131100;28;20445;-66
2022/07/01 02:33:09;;;;;;;3.77;0.87;;;;;;;;;;5130650;28;20487;-66
2022/07/01 02:35:37;;;;;;;2.97;0.60;;;;;;;;;;5131154;28;20448;-67
2022/07/01 02:38:05;;;;;;;3.23;0.70;;;;;;;;;;5130913;28;20957;-65
2022/07/01 02:40:33;;;;;;;3.53;1.27;;;;;;;;;;5132778;27;20489;-65
2022/07/01 02:43:00;;;;;;;3.30;0.70;;;;;;;;;;5132465;27;20524;-66
2022/07/01 02:45:28;;;;;;;3.10;0.50;;;;;;;;;;5131665;28;20471;-66
2022/07/01 02:47:56;;;;;;;3.33;0.87;;;26.80;99.90;;;;;;5130809;28;20447;-66
2022/07/01 02:50:22;;;;;;;3.17;0.63;;;15.90;99.90;;;;;;5130973;28;20452;-68
2022/07/01 02:52:49;;;;;;;3.40;0.80;;;15.80;99.90;;;;;;5131010;28;20454;-66
2022/07/01 02:55:16;;;;;;;5.47;0.77;;;15.90;99.90;;;;;;5130289;28;20454;-66
2022/07/01 02:57:44;;;;;;;3.73;1.10;;;16.00;99.90;;;;;;5131038;28;20453;-66
2022/07/01 03:00:13;;;;;;;3.40;0.93;;;16.10;99.90;;;;;;5116847;28;20471;-66
2022/07/01 03:02:40;;;;;;;3.10;0.87;;;16.20;99.90;;;;;;5131440;28;20453;-66
2022/07/01 03:05:10;;;;;;;3.10;0.70;;;16.30;99.90;;;;;;5130099;28;20445;-66
2022/07/01 03:07:37;;;;;;;3.87;0.70;;;16.00;99.90;;;;;;5131238;28;20447;-67
2022/07/01 03:10:04;;;;;;;2.93;0.60;;;16.00;99.90;;;;;;5130061;28;20827;-66
2022/07/01 03:12:34;;;;;;;3.60;1.00;;;;;;;;;;5130703;28;20456;-66
2022/07/01 03:15:02;;;;;;;3.50;0.90;;;;;;;;;;5130435;28;20448;-66
2022/07/01 03:17:30;;;;;;;4.30;0.90;;;;;;;;;;5132946;27;20454;-66
2022/07/01 03:19:57;;;;;;;3.50;1.23;;;;;;;;;;5134457;27;20903;-66
2022/07/01 03:22:27;;;;;;;3.30;0.93;;;;;;;;;;5134649;27;20440;-66
2022/07/01 03:24:54;;;;;;;3.33;0.80;;;;;;;;;;5133453;27;20454;-66
2022/07/01 03:27:22;;;;;;;3.40;1.00;;;;;;;;;;5134000;27;20456;-65
2022/07/01 03:29:49;;;;;;;3.60;0.90;;;;;;;;;;5134738;27;20463;-65
2022/07/01 03:32:16;;;;;;;5.40;0.80;;;;;;;;;;5132775;27;20505;-65
2022/07/01 03:34:44;;;;;;;8.00;1.47;;;;;;;;;;5134487;27;20495;-65
2022/07/01 03:37:12;;;;;;;3.90;1.00;;;;;;;;;;5133224;27;20460;-67
2022/07/01 03:39:41;;;;;;;3.97;0.83;;;;;;;;;;5134018;27;20908;-66
2022/07/01 03:42:08;;;;;;;3.90;0.80;;;;;;;;;;5133355;27;20447;-66
2022/07/01 03:44:36;;;;;;;3.33;0.70;;;;;;;;;;5134242;27;20441;-66
2022/07/01 03:47:05;;;;;;;4.53;1.00;;;;;;;;;;5134041;27;20445;-65
2022/07/01 03:49:32;;;;;;;4.27;1.03;;;;;;;;;;5135224;27;20456;-66
2022/07/01 03:52:00;;;;;;;3.90;0.90;;;;;;;;;;5135159;27;20459;-65
2022/07/01 03:54:33;;;;;;;3.20;0.70;;;;;;;;;;5135268;27;20530;-66
2022/07/01 03:57:02;;;;;;;3.53;0.77;;;;;;;;;;5133161;27;20460;-66
2022/07/01 03:59:29;;;;;;;3.23;0.70;;;;;;;;;;5127387;27;20487;-66
2022/07/01 04:01:57;;;;;;;3.50;0.83;;;15.70;99.90;;;;;;5133311;27;20458;-66
2022/07/01 04:04:24;;;;;;;3.50;0.80;;;15.40;99.90;;;;;;5133434;27;20448;-66
2022/07/01 04:06:51;;;;;;;3.33;0.80;;;;;;;;;;5134126;27;20435;-66
2022/07/01 04:09:19;;;;;;;3.40;1.00;;;;;;;;;;5132883;27;20459;-65
2022/07/01 04:11:47;;;;;;;3.00;0.80;;;;;;;;;;5133893;27;20501;-65
2022/07/01 04:14:15;;;;;;;4.00;0.90;;;;;;;;;;5132718;27;20819;-66
2022/07/01 04:16:43;;;;;;;2.80;0.80;;;;;;;;;;5133630;27;20443;-66
2022/07/01 04:19:10;;;;;;;8.97;1.07;;;;;;;;;;5133028;27;20478;-66
2022/07/01 04:24:24;;;;;;;3.10;0.77;;;15.50;99.90;;;;;;5133410;27;20476;-66
2022/07/01 04:26:51;;;;;;;2.40;0.60;;;15.00;99.90;;;;;;5133580;27;20453;-65
2022/07/01 04:29:20;;;;;;;2.70;0.90;;;14.90;99.90;;;;;;5132545;27;20684;-66
2022/07/01 04:31:48;;;;;;;2.57;0.70;;;14.70;99.90;;;;;;5132339;27;20538;-66
2022/07/01 04:34:15;;;;;;;3.70;1.10;;;14.90;99.90;;;;;;5132666;27;20473;-66
2022/07/01 04:36:42;;;;;;;4.50;1.53;;;15.00;99.90;;;;;;5132783;27;20954;-66
2022/07/01 04:39:09;;;;;;;2.77;1.10;;;15.10;99.90;;;;;;5131656;27;20446;-66
2022/07/01 04:44:23;;;;;;;2.73;0.80;;;14.90;99.90;;;;;;5130597;27;20499;-66
2022/07/01 04:46:49;;;;;;;2.37;0.70;;;15.20;99.90;;;;;;5133056;27;20439;-67
2022/07/01 04:49:16;;;;;;;2.70;0.80;;;15.30;99.90;;;;;;5132422;27;20447;-66
2022/07/01 04:51:43;;;;;;;2.20;0.50;;;15.40;99.90;;;;;;5132083;27;20457;-66
2022/07/01 04:54:10;;;;;;;2.30;0.70;;;15.40;99.90;;;;;;5132464;27;20465;-66
2022/07/01 04:56:38;;;;;;;2.30;0.60;;;15.30;99.90;;;;;;5131937;27;20473;-67
2022/07/01 04:59:05;;;;;;;2.50;0.70;;;15.10;99.90;;;;;;5132294;27;20439;-65
2022/07/01 05:01:34;;;;;;;2.90;0.87;;;15.10;99.90;;;;;;5132227;27;20525;-66
2022/07/01 05:04:01;;;;;;;2.37;0.60;;;15.20;99.90;;;;;;5131930;27;20906;-66
2022/07/01 05:06:27;;;;;;;2.30;0.60;;;15.10;99.90;;;;;;5132372;27;20435;-66
2022/07/01 05:08:54;;;;;;;2.53;0.77;;;;;;;;;;5132039;27;20446;-66
2022/07/01 05:11:21;;;;;;;2.63;0.70;;;15.10;99.90;;;;;;5135397;27;20453;-66
2022/07/01 05:13:48;;;;;;;2.83;0.80;;;15.20;99.90;;;;;;5140684;27;20449;-65
2022/07/01 05:16:15;;;;;;;4.07;0.70;;;15.10;99.90;;;;;;5130939;27;20447;-66
2022/07/01 05:24:11;;;;;;;2.30;0.63;;;15.40;99.90;;;;;;5131638;27;20438;-66
2022/07/01 05:26:39;;;;;;;2.20;0.60;;;15.50;99.90;;;;;;5132236;27;20812;-66
2022/07/01 05:29:06;;;;;;;2.40;0.80;;;15.50;99.90;;;;;;5130527;27;20447;-66
2022/07/01 05:31:33;;;;;;;2.50;0.87;;;15.50;99.90;;;;;;5131641;27;20447;-66
2022/07/01 05:34:01;;;;;;;2.20;0.70;;;15.40;99.90;;;;;;5131381;27;20479;-66
2022/07/01 05:36:28;;;;;;;2.27;0.60;;;15.60;99.90;;;;;;5131913;27;20965;-66
2022/07/01 05:38:55;;;;;;;2.17;0.80;;;15.60;99.90;;;;;;5131397;27;20443;-66
2022/07/01 05:41:22;;;;;;;2.07;0.70;;;15.60;99.90;;;;;;5130027;27;20476;-65
2022/07/01 05:43:48;;;;;;;5.27;0.93;;;15.50;99.90;;;;;;5132251;27;20451;-66
2022/07/01 05:46:15;;;;;;;3.90;0.93;;;15.70;99.90;;;;;;5131206;27;20779;-66
2022/07/01 05:48:42;;;;;;;2.50;0.70;;;15.80;99.90;;;;;;5132072;27;20465;-66
2022/07/01 05:51:10;;;;;;;3.03;1.30;;;15.60;99.90;;;;;;5130964;27;20454;-65
2022/07/01 05:53:37;;;;;;;2.60;0.80;;;15.50;99.90;;;;;;5131752;27;21767;-65
2022/07/01 05:56:04;;;;;;;2.50;0.90;;;15.50;99.90;;;;;;5130575;27;20442;-65
2022/07/01 05:58:31;;;;;;;2.70;0.73;;;15.60;99.90;;;;;;5131548;27;20814;-65
2022/07/01 06:00:58;;;;;;;3.27;1.40;;;15.70;99.90;;;;;;5129886;27;20475;-66
2022/07/01 06:03:25;;;;;;;2.50;0.90;;;15.70;99.90;;;;;;5131761;27;20922;-66
2022/07/01 06:05:52;;;;;;;3.97;1.23;;;15.80;99.90;;;;;;5131879;27;20794;-66
2022/07/01 06:08:20;;;;;;;2.90;1.03;;;15.80;99.90;;;;;;5130965;28;20938;-65
2022/07/01 06:10:47;;;;;;;2.80;0.90;;;15.80;99.90;;;;;;5130773;28;20462;-65
2022/07/01 06:13:14;;;;;;;4.57;1.20;;;15.80;99.90;;;;;;5137366;27;20459;-66
2022/07/01 06:15:41;;;;;;;3.67;1.17;;;15.70;99.90;;;;;;5131345;28;20810;-67
2022/07/01 06:18:08;;;;;;;4.63;1.23;;;15.50;99.90;;;;;;5130795;28;20447;-65
2022/07/01 06:20:35;;;;;;;5.53;2.50;;;15.70;99.90;;;;;;5129868;28;20501;-66
2022/07/01 06:23:01;;;;;;;4.40;1.20;;;15.60;99.90;;;;;;5131497;28;20812;-66
2022/07/01 06:25:30;;;;;;;3.10;1.30;;;15.70;99.90;;;;;;5131097;28;20451;-65
2022/07/01 06:27:56;;;;;;;2.97;1.20;;;15.60;99.90;;;;;;5118454;28;20525;-66
2022/07/01 06:30:23;;;;;;;3.83;1.20;;;15.60;99.90;;;;;;5130689;28;20500;-68
2022/07/01 06:32:50;;;;;;;5.00;1.60;;;15.70;99.90;;;;;;5130824;28;20845;-66
2022/07/01 06:35:17;;;;;;;2.60;0.90;;;15.70;99.90;;;;;;5129767;28;20449;-67
2022/07/01 06:37:44;;;;;;;2.90;1.13;;;15.70;99.90;;;;;;5131049;28;20805;-65
2022/07/01 06:40:11;;;;;;;4.23;1.30;;;;;;;;;;5130129;28;20485;-66
2022/07/01 06:42:40;;;;;;;3.33;1.27;;;;;;;;;;5123342;28;20455;-66
2022/07/01 06:45:07;;;;;;;4.30;1.80;;;;;;;;;;5125913;28;20538;-66
2022/07/01 06:47:36;;;;;;;4.10;1.30;;;;;;;;;;5126396;28;20968;-67
2022/07/01 06:50:03;;;;;;;3.30;1.27;;;;;;;;;;5123638;28;20467;-66
2022/07/01 06:52:30;;;;;;;9.50;3.13;;;;;;;;;;5125802;27;20536;-66
2022/07/01 06:54:57;;;;;;;3.50;1.30;;;;;;;;;;5130178;27;20444;-68
2022/07/01 06:57:24;;;;;;;2.80;1.20;;;;;;;;;;5132003;27;20441;-68
2022/07/01 06:59:53;;;;;;;2.73;0.80;;;;;;;;;;5126752;27;20870;-67
2022/07/01 07:02:20;;;;;;;2.97;1.20;;;;;;;;;;5133319;27;20447;-67
2022/07/01 07:04:47;;;;;;;2.50;0.70;;;;;;;;;;5127156;27;20448;-69
2022/07/01 07:07:14;;;;;;;3.00;1.23;;;;;;;;;;5126038;27;20439;-69
2022/07/01 07:09:42;;;;;;;2.40;0.80;;;;;;;;;;5124467;27;20536;-68
2022/07/01 07:12:09;;;;;;;3.23;1.17;;;;;;;;;;5140741;27;20462;-67
2022/07/01 07:14:36;;;;;;;3.47;1.10;;;;;;;;;;5135140;27;20453;-67
2022/07/01 07:17:05;;;;;;;2.70;0.83;;;;;;;;;;5133745;27;20439;-64
2022/07/01 07:19:32;;;;;;;4.30;0.80;;;;;;;;;;5133701;27;20450;-66
2022/07/01 07:21:59;;;;;;;2.60;0.70;;;;;;;;;;5132986;27;20483;-69
2022/07/01 07:24:26;;;;;;;2.73;0.97;;;;;;;;;;5135001;27;20812;-67
2022/07/01 07:26:53;;;;;;;2.80;0.80;;;;;;;;;;5133483;27;20456;-70
2022/07/01 07:29:21;;;;;;;3.00;1.03;;;;;;;;;;5134207;27;20449;-66
2022/07/01 07:31:48;;;;;;;3.00;0.90;;;;;;;;;;5132795;27;20447;-66
2022/07/01 07:34:16;;;;;;;3.20;1.10;;;;;;;;;;5132808;27;20437;-67
2022/07/01 07:36:43;;;;;;;2.70;0.67;;;;;;;;;;5132279;27;20443;-67
2022/07/01 07:39:10;;;;;;;2.90;0.80;;;;;;;;;;5133781;27;20460;-66
2022/07/01 07:41:39;;;;;;;9.03;1.20;;;;;;;;;;5133428;27;20486;-66
2022/07/01 07:44:06;;;;;;;2.73;0.90;;;;;;;;;;5132543;27;20480;-66
2022/07/01 07:46:33;;;;;;;2.90;0.90;;;;;;;;;;5111151;27;20460;-67
2022/07/01 07:49:00;;;;;;;2.80;0.70;;;;;;;;;;5123553;27;20440;-67
2022/07/01 07:51:29;;;;;;;3.70;0.83;;;;;;;;;;5125829;27;21000;-67
2022/07/01 07:53:56;;;;;;;5.30;1.57;;;;;;;;;;5118745;27;20453;-66
2022/07/01 07:56:23;;;;;;;2.60;0.80;;;;;;;;;;5132668;27;20965;-68
2022/07/01 07:58:50;;;;;;;2.47;0.63;;;;;;;;;;5134113;27;20488;-67
2022/07/01 08:01:18;;;;;;;4.53;0.87;;;;;;;;;;5132391;27;20481;-66
2022/07/01 08:03:45;;;;;;;3.50;1.10;;;;;;;;;;5133125;27;20474;-66
2022/07/01 08:06:12;;;;;;;2.57;0.70;;;;;;;;;;5132356;27;20536;-66
2022/07/01 08:08:40;;;;;;;2.87;0.93;;;;;;;;;;5133442;27;20455;-67
2022/07/01 08:11:07;;;;;;;2.40;0.70;;;;;;;;;;5131856;27;21536;-67
2022/07/01 08:13:35;;;;;;;2.23;0.57;;;;;;;;;;5144122;27;20446;-67
2022/07/01 08:16:02;;;;;;;2.60;0.80;;;;;;;;;;5132013;27;20461;-67
2022/07/01 08:18:29;;;;;;;2.60;0.70;;;;;;;;;;5133772;27;20440;-66
2022/07/01 08:20:56;;;;;;;3.17;1.40;;;;;;;;;;5133422;27;20493;-67
2022/07/01 08:23:24;;;;;;;4.20;1.90;;;;;;;;;;5134394;27;20437;-70
2022/07/01 08:25:52;;;;;;;2.90;0.83;;;;;;;;;;5135570;27;20461;-67
2022/07/01 08:28:20;;;;;;;2.90;1.00;;;;;;;;;;5136652;27;20444;-67
2022/07/01 08:30:47;;;;;;;3.83;0.87;;;;;;;;;;5131564;27;20446;-67
2022/07/01 08:33:14;;;;;;;3.13;0.80;;;;;;;;;;5132799;27;20486;-66
2022/07/01 08:35:42;;;;;;;3.67;0.90;;;;;;;;;;5131906;27;20453;-65
2022/07/01 08:38:09;;;;;;;2.80;0.90;;;;;;;;;;5131654;27;20442;-65
2022/07/01 08:40:37;;;;;;;3.20;1.10;;;;;;;;;;5131473;27;20989;-66
2022/07/01 08:43:06;;;;;;;2.60;0.70;;;;;;;;;;5132275;27;20450;-62
2022/07/01 08:45:33;;;;;;;2.90;0.90;;;;;;;;;;5133842;27;20451;-65
2022/07/01 08:48:01;;;;;;;2.90;0.80;;;;;;;;;;5124406;27;20536;-70
2022/07/01 08:50:29;;;;;;;2.80;0.80;;;;;;;;;;5127689;27;20442;-66
2022/07/01 08:52:56;;;;;;;3.27;1.10;;;;;;;;;;5125790;27;20500;-67
2022/07/01 08:55:23;;;;;;;3.33;1.00;;;;;;;;;;5124943;27;20447;-68
2022/07/01 08:57:51;;;;;;;3.30;0.80;;;;;;;;;;5124839;27;20464;-67
2022/07/01 09:00:20;;;;;;;2.80;0.87;;;;;;;;;;5123900;27;20451;-67
2022/07/01 09:02:51;;;;;;;3.20;1.17;;;;;;;;;;5124630;27;20453;-67
2022/07/01 09:05:18;;;;;;;3.10;0.73;;;15.70;99.90;;;;;;5126476;27;20441;-67
2022/07/01 09:07:46;;;;;;;3.07;0.80;;;16.10;99.90;;;;;;5126530;27;20450;-67
2022/07/01 09:10:16;;;;;;;3.77;0.93;;;16.20;99.90;;;;;;5130829;27;21004;-69
2022/07/01 09:12:43;;;;;;;2.90;0.80;;;16.20;99.90;;;;;;5134133;27;21033;-66
2022/07/01 09:15:31;;;;;;;2.80;0.80;;;16.30;99.90;;;;;;5130623;27;20541;-65
2022/07/01 09:18:05;;;;;;;3.17;0.90;;;16.40;99.90;;;;;;5130838;27;20524;-66
2022/07/01 09:20:33;;;;;;;3.63;0.93;;;16.40;99.90;;;;;;5130489;27;20480;-66
2022/07/01 09:23:02;;;;;;;3.40;0.97;;;16.20;99.90;;;;;;5128283;27;20454;-66
2022/07/01 09:25:37;;;;;;;2.93;0.70;;;16.20;99.90;;;;;;5131490;27;20454;-66
2022/07/01 09:28:08;;;;;;;4.03;0.90;;;16.20;99.90;;;;;;5130848;27;20452;-68
2022/07/01 09:30:38;;;;;;;2.80;0.80;;;;;;;;;;5130941;27;20512;-67
2022/07/01 09:33:09;;;;;;;3.30;1.00;;;;;;;;;;5130307;27;20479;-67
2022/07/01 09:35:36;;;;;;;3.13;0.70;;;;;;;;;;5131058;27;20445;-66
2022/07/01 09:38:04;;;;;;;2.87;0.87;;;;;;;;;;5131625;27;20449;-65
2022/07/01 09:40:53;;;;;;;3.63;1.10;;;;;;;;;;5129827;27;20442;-66
2022/07/01 09:43:21;;;;;;;2.90;0.77;;;;;;;;;;5122490;27;20791;-66
2022/07/01 09:46:00;;;;;;;2.40;0.60;;;;;;;;;;5124691;27;20440;-66
2022/07/01 09:48:29;;;;;;;2.93;1.00;;;;;;;;;;5123634;27;20523;-66
2022/07/01 09:50:56;;;;;;;3.00;1.10;;;;;;;;;;5124726;27;20450;-66
2022/07/01 09:53:23;;;;;;;3.63;1.50;;;;;;;;;;5123620;27;20442;-66
2022/07/01 09:55:50;;;;;;;2.90;0.93;;;;;;;;;;5125802;27;20941;-66
2022/07/01 09:58:17;;;;;;;3.60;0.80;;;;;;;;;;5130079;27;20494;-66
2022/07/01 10:00:45;;;;;;;2.70;1.07;;;;;;;;;;5130866;27;20900;-66
2022/07/01 10:03:13;;;;;;;3.03;1.00;;;;;;;;;;5130708;27;20709;-66
2022/07/01 10:05:43;;;;;;;2.90;1.20;;;;;;;;;;5131130;28;20444;-66
2022/07/01 10:08:23;;;;;;;2.70;1.00;;;;;;;;;;5130441;28;20839;-67
2022/07/01 10:10:52;;;;;;;3.27;1.00;;;;;;;;;;5130239;28;20444;-68
2022/07/01 10:13:23;;;;;;;2.90;0.90;;;;;;;;;;5137012;27;20453;-66
2022/07/01 10:15:50;;;;;;;4.07;1.20;;;;;;;;;;5130625;28;20924;-66
2022/07/01 10:18:22;;;;;;;2.90;0.97;;;;;;;;;;5130554;28;20447;-67
2022/07/01 10:20:50;;;;;;;3.57;1.30;;;;;;;;;;5118684;28;20473;-67
2022/07/01 10:23:17;;;;;;;3.30;1.10;;;;;;;;;;5122622;28;20512;-67
2022/07/01 10:25:46;;;;;;;4.43;1.50;;;;;;;;;;5128866;27;20447;-67
2022/07/01 10:28:14;;;;;;;3.53;1.30;;;;;;;;;;5131242;27;20822;-67
2022/07/01 10:30:49;;;;;;;4.73;1.37;;;;;;;;;;5132614;27;20545;-68
2022/07/01 10:33:29;;;;;;;3.40;1.10;;;;;;;;;;5132109;27;20478;-66
2022/07/01 10:35:56;;;;;;;4.97;1.70;;;;;;;;;;5125400;27;20450;-69
2022/07/01 10:38:23;;;;;;;3.83;1.20;;;;;;;;;;5132090;27;20780;-69
2022/07/01 10:40:50;;;;;;;4.60;1.03;;;;;;;;;;5127190;27;20951;-66
2022/07/01 10:43:18;;;;;;;3.90;1.23;;;;;;;;;;5131766;27;20441;-66
2022/07/01 10:45:45;;;;;;;4.03;1.20;;;;;;;;;;5129491;27;20793;-67
2022/07/01 10:48:19;;;;;;;3.90;0.80;;;;;;;;;;5126078;27;20903;-66
2022/07/01 10:50:48;;;;;;;4.70;1.10;;;;;;;;;;5127837;27;20442;-67
2022/07/01 10:53:16;;;;;;;4.20;0.90;;;;;;;;;;5124246;27;20443;-66
2022/07/01 10:55:47;;;;;;;4.33;1.00;;;;;;;;;;5124015;27;20774;-65
2022/07/01 10:58:14;;;;;;;4.70;1.00;;;;;;;;;;5124471;27;20454;-66
2022/07/01 11:00:42;;;;;;;4.70;1.00;;;;;;;;;;5125595;27;20450;-66
2022/07/01 11:03:10;;;;;;;4.60;1.00;;;;;;;;;;5123808;27;20600;-66
2022/07/01 11:05:38;;;;;;;4.67;1.07;;;;;;;;;;5125827;27;20446;-65
2022/07/01 11:08:08;;;;;;;5.33;0.80;;;;;;;;;;5121119;27;20444;-69
2022/07/01 11:10:35;;;;;;;5.90;0.97;;;;;;;;;;5124579;27;20495;-66
2022/07/01 11:13:02;;;;;;;4.70;0.80;;;;;;;;;;5121432;27;20467;-66
2022/07/01 11:15:30;;;;;;;5.40;1.20;;;;;;;;;;5129682;27;20521;-66
2022/07/01 11:17:58;;;;;;;7.53;0.90;;;;;;;;;;5132180;27;20507;-66
2022/07/01 11:20:25;;;;;;;4.90;0.90;;;;;;;;;;5131728;27;20451;-67
2022/07/01 11:22:52;;;;;;;5.27;0.90;;;;;;;;;;5125792;27;20581;-66
2022/07/01 11:25:22;;;;;;;5.87;0.97;;;;;;;;;;5131592;27;20455;-66
2022/07/01 11:27:50;;;;;;;5.90;1.10;;;;;;;;;;5132013;27;20447;-67
2022/07/01 11:30:17;;;;;;;5.53;1.00;;;;;;;;;;5130587;27;20451;-65
2022/07/01 11:32:46;;;;;;;5.40;0.80;;;;;;;;;;5131198;27;20485;-68
2022/07/01 11:40:53;;;;;;;6.07;1.13;;;;;;;;;;5127829;27;20434;-68
2022/07/01 11:43:21;;;;;;;6.43;0.90;;;;;;;;;;5131670;27;20485;-68
2022/07/01 11:45:48;;;;;;;6.17;1.20;;;;;;;;;;5130425;27;21230;-69
2022/07/01 11:48:29;;;;;;;7.07;1.10;;;;;;;;;;5126940;27;20454;-68
2022/07/01 11:50:56;;;;;;;7.10;1.30;;;;;;;;;;5125381;27;20447;-69
2022/07/01 11:53:23;;;;;;;6.70;0.97;;;;;;;;;;5125408;27;20949;-69
2022/07/01 11:55:50;;;;;;;6.97;1.10;;;;;;;;;;5131704;27;20443;-68
2022/07/01 11:58:19;;;;;;;6.90;1.00;;;;;;;;;;5129230;27;20454;-68
2022/07/01 12:00:46;;;;;;;7.50;1.20;;;;;;;;;;5129559;27;20447;-68
2022/07/01 12:03:14;;;;;;;10.30;1.30;;;;;;;;;;5130280;27;20705;-68
2022/07/01 12:05:41;;;;;;;6.83;0.77;;;;;;;;;;5131236;27;20541;-69
2022/07/01 12:08:08;;;;;;;6.63;0.93;;;;;;;;;;5130890;27;20449;-68
2022/07/01 12:10:35;;;;;;;6.90;0.90;;;;;;;;;;5130641;27;20447;-68
2022/07/01 12:13:17;;;;;;;6.70;0.97;;;;;;;;;;5141096;27;20454;-67
2022/07/01 12:15:46;;;;;;;6.83;1.27;;;;;;;;;;5131436;27;20443;-68
2022/07/01 12:18:13;;;;;;;5.60;0.80;;;;;;;;;;5131204;27;20709;-67
2022/07/01 12:20:40;;;;;;;6.30;0.97;;;;;;;;;;5132696;27;20811;-68
2022/07/01 12:23:13;;;;;;;5.57;0.80;;;;;;;;;;5130509;27;20483;-68
2022/07/01 12:25:41;;;;;;;5.63;0.90;;;;;;;;;;5130648;27;20545;-68
2022/07/01 12:28:08;;;;;;;7.10;1.13;;;;;;;;;;5129022;27;20505;-69
2022/07/01 12:30:35;;;;;;;6.73;1.07;;;;;;;;;;5130234;27;20530;-68
2022/07/01 12:33:11;;;;;;;5.67;0.83;;;;;;;;;;5130186;27;20482;-67
2022/07/01 12:35:42;;;;;;;6.53;1.00;;;;;;;;;;5129846;27;20447;-68
2022/07/01 12:38:16;;;;;;;9.77;1.23;;;;;;;;;;5130384;27;20443;-67
2022/07/01 12:40:43;;;;;;;6.67;0.90;;;;;;;;;;5126419;27;20459;-68
2022/07/01 12:43:23;;;;;;;5.77;0.77;;;;;;;;;;5122126;27;20484;-68
2022/07/01 12:45:50;;;;;;;5.33;0.80;;;;;;;;;;5124328;27;21008;-70
2022/07/01 12:48:19;;;;;;;6.00;1.00;;;;;;;;;;5123891;27;20451;-68
2022/07/01 12:50:47;;;;;;;7.17;0.87;;;;;;;;;;5122505;27;20455;-68
2022/07/01 12:53:19;;;;;;;6.20;0.80;;;;;;;;;;5122826;27;20629;-68
2022/07/01 12:55:47;;;;;;;5.73;1.00;;;;;;;;;;5120953;27;20903;-67
2022/07/01 12:58:15;;;;;;;5.77;1.10;;;;;;;;;;5124652;27;20442;-68
2022/07/01 13:00:43;;;;;;;7.80;2.50;;;;;;;;;;5127233;27;20451;-68
2022/07/01 13:03:11;;;;;;;6.47;1.03;;;;;;;;;;5122823;27;20486;-68
2022/07/01 13:05:40;;;;;;;6.30;1.13;;;;;;;;;;5122251;27;20444;-68
2022/07/01 13:08:08;;;;;;;5.63;1.13;;;;;;;;;;5127880;27;20445;-68
2022/07/01 13:10:35;;;;;;;5.97;1.10;;;;;;;;;;5129487;27;20442;-68
2022/07/01 13:13:03;;;;;;;5.80;0.90;;;;;;;;;;5139259;27;20457;-68
2022/07/01 13:15:30;;;;;;;5.40;0.70;;;;;;;;;;5130338;27;20451;-67
2022/07/01 13:17:57;;;;;;;6.80;1.83;;;;;;;;;;5128417;27;20439;-67
2022/07/01 13:20:24;;;;;;;5.80;0.90;;;;;;;;;;5129124;27;20458;-69
2022/07/01 13:22:53;;;;;;;5.70;1.13;;;;;;;;;;5129969;27;20991;-68
2022/07/01 13:25:21;;;;;;;5.60;1.00;;;;;;;;;;5129603;27;20458;-69
2022/07/01 13:27:48;;;;;;;5.70;0.93;;;;;;;;;;5130364;27;20443;-68
2022/07/01 13:30:16;;;;;;;6.20;1.10;;;;;;;;;;5128555;27;20549;-68
2022/07/01 13:32:43;;;;;;;6.27;1.33;;;;;;;;;;5129528;27;20490;-68
2022/07/01 13:35:11;;;;;;;6.10;1.30;;;;;;;;;;5128702;27;20457;-68
2022/07/01 13:37:38;;;;;;;5.90;0.90;;;;;;;;;;5129931;27;20450;-68
2022/07/01 13:40:08;;;;;;;5.70;0.93;;;;;;;;;;5128474;27;20499;-70
2022/07/01 13:42:35;;;;;;;9.00;1.20;;;;;;;;;;5129959;27;20471;-69
2022/07/01 13:45:02;;;;;;;7.43;1.10;;;;;;;;;;5130508;27;20443;-69
2022/07/01 13:47:30;;;;;;;5.70;1.00;;;;;;;;;;5122963;27;20520;-69
2022/07/01 13:49:57;;;;;;;8.10;2.13;;;;;;;;;;5123130;27;20443;-69
2022/07/01 13:52:24;;;;;;;6.03;1.20;;;;;;;;;;5126874;27;20450;-69
2022/07/01 13:54:52;;;;;;;6.93;1.17;;;;;;;;;;5131303;27;20454;-68
2022/07/01 13:57:20;;;;;;;6.07;0.97;;;;;;;;;;5132143;27;20543;-68
2022/07/01 13:59:47;;;;;;;5.80;1.00;;;;;;;;;;5131301;27;20443;-68
2022/07/01 14:02:14;;;;;;;5.97;1.10;;;;;;;;;;5120646;27;20852;-68
2022/07/01 14:04:41;;;;;;;6.87;1.10;;;;;;;;;;5131877;27;20451;-68
2022/07/01 14:07:09;;;;;;;5.80;1.20;;;;;;;;;;5130849;28;20455;-69
2022/07/01 14:09:36;;;;;;;6.00;1.10;;;;;;;;;;5131078;28;20943;-68
2022/07/01 14:12:03;;;;;;;5.70;1.10;;;;;;;;;;5139985;27;20453;-68
2022/07/01 14:14:32;;;;;;;9.53;1.33;;;;;;;;;;5133969;27;20447;-68
2022/07/01 14:16:59;;;;;;;6.40;1.43;;;;;;;;;;5130261;28;20478;-68
2022/07/01 14:19:27;;;;;;;9.07;2.80;;;;;;;;;;5131221;28;20465;-68
2022/07/01 14:21:55;;;;;;;7.10;1.30;;;;;;;;;;5130722;28;20447;-68
2022/07/01 14:24:22;;;;;;;5.97;1.00;;;;;;;;;;5131111;28;20941;-68
2022/07/01 14:26:50;;;;;;;6.00;1.20;;;;;;;;;;5131029;28;20475;-68
2022/07/01 14:29:17;;;;;;;5.43;1.00;;;;;;;;;;5130437;28;20504;-68
2022/07/01 14:31:46;;;;;;;4.80;0.90;;;;;;;;;;5130621;28;20466;-68
2022/07/01 14:34:13;;;;;;;4.47;1.03;;;;;;;;;;5131046;28;20963;-68
2022/07/01 14:36:40;;;;;;;3.80;0.93;;;;;;;;;;5130842;28;20909;-69